Flight Track Log - Related Links

Times and Time Zones

All times are in EDT time to prevent confusion due to time zone crossing. See the N680AN flight status page for this flight to view local times or setup timezone preferences in your user account.

Time Position Orientation Groundspeed Altitude Reporting Facility
EDT Latitude Longitude Course Direction KTS MPH feet Rate Location/Type
Sun 09:18:44 PM 25.7983 -80.2653 318° Northwest 160 184 1,100  Level Miami Center
Sun 09:19:33 PM 25.8056 -80.2217 80° East 194 223 2,600 1,981 Climbing Miami Center
Sun 09:20:00 PM 25.9324 -80.4491 318° Northwest  Level FlightAware Approximate
Sun 09:20:30 PM 25.8175 -80.1550 79° East 253 291 4,600  Level Miami Center
Sun 09:21:00 PM 26.0062 -80.5360 310° West  Level FlightAware Approximate
Sun 09:21:31 PM 25.8825 -80.1475 North 285 328 6,500  Level Miami Center
Sun 09:22:00 PM 26.0767 -80.6266 318° Northwest  Level FlightAware Approximate
Sun 09:22:16 PM 25.9086 -80.1992 299° West 309 356 6,800  Level Miami Center
Sun 09:23:00 PM 26.1569 -80.7068 318° Northwest  Level FlightAware Approximate
Sun 09:23:17 PM 25.9317 -80.2853 287° West 298 343 7,000  Level Miami Center
Sun 09:24:18 PM 25.9758 -80.3581 304° West 293 337 6,900 1,210 Descending Miami Center
Sun 09:25:16 PM 26.0283 -80.4289 310° West 293 337 9,400 2,256 Climbing Miami Center
Sun 09:26:15 PM 26.0808 -80.5069 307° West 299 344 11,300 1,672 Climbing Miami Center
Sun 09:27:18 PM 26.1433 -80.5944 309° West 331 381 12,800 1,951 Climbing Miami Center
Sun 09:28:18 PM 26.2139 -80.6892 310° West 369 425 15,300 2,542 Climbing Miami Center
Sun 09:29:16 PM 26.2783 -80.7864 306° West 392 451 17,800 2,492 Climbing Miami Center
Sun 09:30:16 PM 26.3586 -80.8978 309° West 411 473 20,200 2,100 Climbing Miami Center
Sun 09:31:16 PM 26.4253 -80.9836 311° West 417 480 22,000 1,934 Climbing Miami Center
Sun 09:32:17 PM 26.5186 -81.0797 317° Northwest 417 480 24,100 1,820 Climbing Miami Center
Sun 09:33:18 PM 26.5997 -81.1594 319° Northwest 422 486 25,700 1,576 Climbing Miami Center
Sun 09:34:15 PM 26.6989 -81.2606 318° Northwest 436 502 27,200 1,385 Climbing Miami Center
Sun 09:35:15 PM 26.7900 -81.3569 317° Northwest 450 518 28,400 1,190 Climbing Miami Center
Sun 09:36:16 PM 26.8658 -81.4717 307° West 445 512 29,600 1,230 Climbing Miami Center
Sun 09:37:17 PM 26.9136 -81.6039 292° West 456 525 30,900 1,574 Climbing Miami Center
Sun 09:38:18 PM 26.9619 -81.7225 295° West 462 532 32,800 1,563 Climbing Miami Center
Sun 09:39:16 PM 27.0139 -81.8550 294° West 443 510 34,000 610 Climbing Miami Center
Sun 09:40:16 PM 27.0617 -81.9806 293° West 436 502 34,000  Level Miami Center
Sun 09:41:17 PM 27.1092 -82.1064 293° West 431 496 34,000  Level Miami Center
Sun 09:42:16 PM 27.1511 -82.2156 293° West 431 496 34,000  Level Miami Center
Sun 09:43:16 PM 27.2067 -82.3511 295° West 431 496 34,000  Level Miami Center
Sun 09:44:15 PM 27.2561 -82.4750 294° West 437 503 34,000  Level Miami Center
Sun 09:45:17 PM 27.3033 -82.6033 293° West 432 497 34,000  Level Miami Center
Sun 09:46:17 PM 27.3506 -82.7272 293° West 432 497 34,000  Level Miami Center
Sun 09:47:18 PM 27.3917 -82.8414 292° West 441 507 34,000  Level Miami Center
Sun 09:48:18 PM 27.4464 -82.9800 294° West 441 507 34,000  Level Miami Center
Sun 09:49:16 PM 27.4931 -83.1064 293° West 441 507 34,000  Level Miami Center
Sun 09:50:16 PM 27.5397 -83.2306 293° West 441 507 34,000 550 Level Miami Center
Sun 09:51:16 PM 27.5842 -83.3547 292° West 436 502 35,100 1,008 Climbing Miami Center
Sun 09:52:15 PM 27.6308 -83.4769 293° West 436 502 36,000 450 Climbing Miami Center
Sun 09:53:16 PM 27.6717 -83.5894 292° West 413 475 36,000  Level Miami Center
Sun 09:54:16 PM 27.7122 -83.7019 292° West 396 456 36,000  Level Miami Center
Sun 09:55:17 PM 27.7503 -83.8167 291° West 396 456 36,000  Level Miami Center
Sun 09:56:18 PM 27.8011 -83.9322 296° West 401 461 36,000  Level Miami Center
Sun 09:58:16 PM 27.8850 -84.1697 292° West 403 464 36,000  Level Jacksonville Center
Sun 09:59:16 PM 27.9317 -84.2903 294° West 408 470 36,000  Level Jacksonville Center
Sun 10:00:16 PM 27.9783 -84.4083 294° West 408 470 36,000  Level Jacksonville Center
Sun 10:01:16 PM 28.0144 -84.5242 289° West 408 470 36,000  Level Jacksonville Center
Sun 10:02:16 PM 28.0589 -84.6422 293° West 403 464 36,000  Level Jacksonville Center
Sun 10:03:16 PM 28.0928 -84.7369 292° West 410 472 36,000  Level Jacksonville Center
Sun 10:04:16 PM 28.1411 -84.8719 292° West 417 480 36,000  Level Jacksonville Center
Sun 10:05:16 PM 28.1853 -84.9811 295° West 411 473 36,000  Level Jacksonville Center
Sun 10:06:16 PM 28.2228 -85.1022 289° West 411 473 36,000  Level Jacksonville Center
Sun 10:07:16 PM 28.2667 -85.2139 294° West 406 467 36,000  Level Jacksonville Center
Sun 10:08:16 PM 28.3064 -85.3303 291° West 399 459 36,000  Level Jacksonville Center
Sun 10:09:16 PM 28.3478 -85.4492 292° West 393 452 36,000  Level Jacksonville Center
Sun 10:10:16 PM 28.3872 -85.5636 291° West 393 452 36,000  Level Jacksonville Center
Sun 10:11:16 PM 28.4267 -85.6706 293° West 393 452 36,000  Level Jacksonville Center
Sun 10:12:16 PM 28.4678 -85.7875 292° West 393 452 36,000  Level Jacksonville Center
Sun 10:13:16 PM 28.5069 -85.9019 291° West 398 458 36,000  Level Jacksonville Center
Sun 10:14:16 PM 28.5481 -86.0192 292° West 392 451 36,000  Level Jacksonville Center
Sun 10:15:16 PM 28.5869 -86.1314 292° West 392 451 36,000  Level Jacksonville Center
Sun 10:16:16 PM 28.6278 -86.2461 292° West 397 457 36,000  Level Jacksonville Center
Sun 10:17:16 PM 28.6664 -86.3633 291° West 397 457 36,000  Level Jacksonville Center
Sun 10:18:16 PM 28.7131 -86.4928 292° West 397 457 36,000 -550 Level Jacksonville Center
Sun 10:19:16 PM 28.7556 -86.6081 293° West 392 451 34,900 -2,150 Descending Jacksonville Center
Sun 10:20:16 PM 28.7939 -86.7278 290° West 401 461 31,700 -3,250 Descending Jacksonville Center
Sun 10:21:16 PM 28.8400 -86.8575 292° West 420 483 28,400 -1,850 Descending Jacksonville Center
Sun 10:22:16 PM 28.8900 -86.9947 293° West 447 514 28,000 -200 Descending Jacksonville Center
Sun 10:23:16 PM 28.9294 -87.1219 290° West 442 509 28,000  Level Jacksonville Center
Sun 10:25:10 PM 29.0003 -87.3433 290° West 439 505 28,000  Level Houston Center
Sun 10:26:11 PM 29.0436 -87.4750 291° West 443 510 28,000  Level Houston Center
Sun 10:27:12 PM 29.0956 -87.6333 291° West 442 509 28,000  Level Houston Center
Sun 10:28:13 PM 29.1528 -87.7597 297° West 450 518 28,000  Level Houston Center
Sun 10:29:14 PM 29.2322 -87.8708 309° West 450 518 28,000  Level Houston Center
Sun 10:30:15 PM 29.3219 -87.9736 315° West 458 527 28,000  Level Houston Center
Sun 10:31:16 PM 29.4203 -88.0453 328° Northwest 458 527 28,000  Level Houston Center
Sun 10:32:17 PM 29.5297 -88.1244 328° Northwest 462 532 28,000  Level Houston Center
Sun 10:33:18 PM 29.6381 -88.2036 328° Northwest 463 533 28,000  Level Houston Center
Sun 10:34:18 PM 29.7472 -88.2806 329° Northwest 461 531 28,000  Level Houston Center
Sun 10:35:19 PM 29.8742 -88.3689 329° Northwest 450 518 28,000  Level Houston Center
Sun 10:36:20 PM 29.9786 -88.4431 328° Northwest 441 507 28,000  Level Houston Center
Sun 10:37:21 PM 30.0822 -88.5167 328° Northwest 438 504 28,000  Level Houston Center
Sun 10:38:22 PM 30.1817 -88.5978 325° Northwest 436 502 28,000  Level Houston Center
Sun 10:39:23 PM 30.2617 -88.7008 312° West 433 498 28,000  Level Houston Center
Sun 10:40:24 PM 30.3325 -88.8128 306° West 430 495 28,000  Level Houston Center
Sun 10:41:25 PM 30.4022 -88.9244 306° West 427 491 28,000  Level Houston Center
Sun 10:42:26 PM 30.4692 -89.0294 307° West 425 489 28,000  Level Houston Center
Sun 10:43:27 PM 30.5389 -89.1397 306° West 426 490 28,000  Level Houston Center
Sun 10:44:28 PM 30.6089 -89.2492 307° West 426 490 28,000  Level Houston Center
Sun 10:45:29 PM 30.6908 -89.3811 306° West 424 488 28,000 344 Level Houston Center
Sun 10:46:30 PM 30.7597 -89.4900 306° West 425 489 28,700 984 Climbing Houston Center
Sun 10:47:31 PM 30.8336 -89.6064 306° West 449 517 30,000 1,623 Climbing Houston Center
Sun 10:48:32 PM 30.9047 -89.7192 306° West 440 506 32,000 1,820 Climbing Houston Center
Sun 10:49:33 PM 30.9739 -89.8283 306° West 425 489 33,700 1,623 Climbing Houston Center
Sun 10:50:34 PM 31.0400 -89.9342 306° West 410 472 35,300 1,438 Climbing Houston Center
Sun 10:51:34 PM 31.0897 -90.0444 298° West 397 457 36,600 1,091 Climbing Houston Center
Sun 10:52:35 PM 31.1133 -90.1633 283° West 384 442 37,500 639 Climbing Houston Center
Sun 10:53:36 PM 31.1381 -90.2808 284° West 378 435 37,900 246 Climbing Houston Center
Sun 10:54:37 PM 31.1975 -90.3825 304° West 386 444 38,000 49 Climbing Houston Center
Sun 10:55:38 PM 31.2606 -90.4831 306° West 386 444 38,000  Level Houston Center
Sun 10:56:39 PM 31.3397 -90.6078 307° West 398 458 38,000  Level Houston Center
Sun 10:57:39 PM 31.4061 -90.7122 307° West 402 463 38,000  Level Houston Center
Sun 10:58:40 PM 31.4717 -90.8194 306° West 406 467 38,000  Level Houston Center
Sun 10:59:41 PM 31.5386 -90.9258 306° West 407 468 38,000  Level Houston Center
Sun 11:00:42 PM 31.6050 -91.0339 306° West 408 470 38,000  Level Houston Center
Sun 11:01:43 PM 31.6739 -91.1453 306° West 405 466 38,000  Level Houston Center
Sun 11:02:43 PM 31.7414 -91.2522 307° West 408 470 38,000  Level Houston Center
Sun 11:03:44 PM 31.8083 -91.3608 306° West 411 473 38,000  Level Houston Center
Sun 11:04:45 PM 31.8756 -91.4689 306° West 410 472 38,000  Level Houston Center
Sun 11:05:46 PM 31.9419 -91.5781 306° West 411 473 38,000  Level Houston Center
Sun 11:06:46 PM 32.0086 -91.6872 306° West 412 474 38,000  Level Houston Center
Sun 11:07:47 PM 32.0761 -91.7972 306° West 415 478 38,000  Level Houston Center
Sun 11:08:48 PM 32.1419 -91.9058 306° West 411 473 38,000  Level Houston Center
Sun 11:09:49 PM 32.2083 -92.0172 305° West 416 479 38,000  Level Houston Center
Sun 11:10:49 PM 32.2797 -92.1353 306° West 411 473 38,000  Level Houston Center
Sun 11:11:50 PM 32.3478 -92.2469 306° West 416 479 38,000  Level Houston Center
Sun 11:12:51 PM 32.4139 -92.3567 306° West 413 475 38,000  Level Houston Center
Sun 11:13:54 PM 32.4903 -92.4781 307° West 415 478 38,000  Level Fort Worth Center
Sun 11:14:54 PM 32.5572 -92.5900 305° West 415 478 38,000  Level Fort Worth Center
Sun 11:15:54 PM 32.6242 -92.7025 305° West 415 478 38,000  Level Fort Worth Center
Sun 11:16:54 PM 32.6911 -92.8172 305° West 415 478 38,000  Level Fort Worth Center
Sun 11:17:54 PM 32.7600 -92.9325 305° West 415 478 38,000  Level Fort Worth Center
Sun 11:18:54 PM 32.8264 -93.0453 305° West 421 484 38,000  Level Fort Worth Center
Sun 11:19:54 PM 32.8950 -93.1606 305° West 421 484 38,000  Level Fort Worth Center
Sun 11:20:54 PM 32.9617 -93.2764 304° West 426 490 38,000  Level Fort Worth Center
Sun 11:21:54 PM 33.0300 -93.3944 305° West 426 490 38,000  Level Fort Worth Center
Sun 11:22:54 PM 33.0986 -93.5106 305° West 431 496 38,000  Level Fort Worth Center
Sun 11:23:54 PM 33.1669 -93.6292 305° West 431 496 38,000  Level Fort Worth Center
Sun 11:24:54 PM 33.2350 -93.7453 305° West 431 496 38,000  Level Fort Worth Center
Sun 11:25:54 PM 33.3053 -93.8667 305° West 431 496 38,000  Level Fort Worth Center
Sun 11:26:54 PM 33.3731 -93.9833 305° West 439 505 38,000  Level Fort Worth Center
Sun 11:27:54 PM 33.4497 -94.1172 304° West 439 505 38,000  Level Fort Worth Center
Sun 11:28:54 PM 33.5156 -94.2344 304° West 434 499 38,000  Level Fort Worth Center
Sun 11:29:54 PM 33.5808 -94.3492 304° West 429 494 38,000  Level Fort Worth Center
Sun 11:30:54 PM 33.6464 -94.4667 304° West 429 494 38,000  Level Fort Worth Center
Sun 11:31:54 PM 33.7139 -94.5869 304° West 429 494 38,000  Level Fort Worth Center
Sun 11:32:54 PM 33.7789 -94.7022 304° West 429 494 38,000  Level Fort Worth Center
Sun 11:33:54 PM 33.8503 -94.8200 306° West 429 494 38,000  Level Fort Worth Center
Sun 11:34:54 PM 33.9256 -94.9328 309° West 435 501 38,000  Level Fort Worth Center
Sun 11:35:54 PM 34.0028 -95.0433 310° West 435 501 38,000  Level Fort Worth Center
Sun 11:36:54 PM 34.0822 -95.1542 311° West 435 501 38,000  Level Fort Worth Center
Sun 11:37:54 PM 34.1550 -95.2678 308° West 435 501 38,000  Level Fort Worth Center
Sun 11:38:54 PM 34.2319 -95.3789 310° West 435 501 38,000  Level Fort Worth Center
Sun 11:39:54 PM 34.3089 -95.4925 309° West 440 506 38,000  Level Fort Worth Center
Sun 11:40:54 PM 34.3836 -95.6042 309° West 440 506 38,000  Level Fort Worth Center
Sun 11:41:54 PM 34.4603 -95.7158 310° West 440 506 38,000  Level Fort Worth Center
Sun 11:42:54 PM 34.5389 -95.8303 310° West 440 506 38,000  Level Fort Worth Center
Sun 11:43:54 PM 34.6156 -95.9450 309° West 440 506 38,000  Level Fort Worth Center
Sun 11:44:54 PM 34.6939 -96.0572 310° West 440 506 38,000  Level Fort Worth Center
Sun 11:45:54 PM 34.7703 -96.1750 308° West 445 512 38,000  Level Fort Worth Center
Sun 11:46:54 PM 34.8486 -96.2903 310° West 445 512 38,000  Level Fort Worth Center
Sun 11:47:54 PM 34.9225 -96.4031 309° West 440 506 38,000  Level Fort Worth Center
Sun 11:48:54 PM 35.0025 -96.5189 310° West 440 506 38,000  Level Fort Worth Center
Sun 11:49:54 PM 35.0806 -96.6347 309° West 440 506 38,000  Level Fort Worth Center
Sun 11:51:54 PM 35.2364 -96.8653 310° West 445 512 38,000  Level Kansas City Center
Sun 11:52:55 PM 35.3136 -96.9828 309° West 446 513 38,000  Level Kansas City Center
Sun 11:53:55 PM 35.3914 -97.1006 309° West 447 514 38,000  Level Kansas City Center
Sun 11:54:56 PM 35.4692 -97.2183 309° West 451 519 38,000  Level Kansas City Center
Sun 11:55:57 PM 35.5467 -97.3367 309° West 457 526 38,000  Level Kansas City Center
Sun 11:56:57 PM 35.6219 -97.4578 307° West 456 525 38,000  Level Kansas City Center
Sun 11:57:58 PM 35.6986 -97.5778 308° West 452 520 38,000  Level Kansas City Center
Sun 11:58:59 PM 35.7756 -97.6981 308° West 450 518 38,000  Level Kansas City Center
Sun 11:59:59 PM 35.8522 -97.8186 308° West 448 516 38,000  Level Kansas City Center
Mon 12:01:00 AM 35.9450 -97.9625 309° West 447 514 38,000  Level Kansas City Center
Mon 12:02:00 AM 36.0169 -98.0775 308° West 448 516 38,000  Level Kansas City Center
Mon 12:03:01 AM 36.0947 -98.1981 309° West 448 516 38,000  Level Kansas City Center
Mon 12:04:02 AM 36.1706 -98.3203 308° West 449 517 38,000  Level Kansas City Center
Mon 12:05:02 AM 36.2475 -98.4419 308° West 449 517 38,000  Level Kansas City Center
Mon 12:06:03 AM 36.3231 -98.5644 307° West 449 517 38,000  Level Kansas City Center
Mon 12:07:03 AM 36.3992 -98.6847 308° West 446 513 38,000  Level Kansas City Center
Mon 12:08:04 AM 36.4744 -98.8056 308° West 445 512 38,000  Level Kansas City Center
Mon 12:09:04 AM 36.5492 -98.9267 308° West 444 511 38,000  Level Kansas City Center
Mon 12:10:05 AM 36.6236 -99.0475 308° West 442 509 38,000  Level Kansas City Center
Mon 12:11:05 AM 36.6972 -99.1694 307° West 442 509 38,000  Level Kansas City Center
Mon 12:12:06 AM 36.7714 -99.2903 307° West 440 506 38,000  Level Kansas City Center
Mon 12:13:06 AM 36.8456 -99.4094 308° West 436 502 38,000  Level Kansas City Center
Mon 12:14:07 AM 36.9186 -99.5317 307° West 438 504 38,000  Level Kansas City Center
Mon 12:15:07 AM 37.0072 -99.6767 307° West 436 502 38,000  Level Kansas City Center
Mon 12:16:08 AM 37.0789 -99.7975 307° West 434 499 38,000  Level Kansas City Center
Mon 12:17:08 AM 37.1478 -99.9117 307° West 432 497 38,000  Level Kansas City Center
Mon 12:18:09 AM 37.2156 -100.0275 306° West 430 495 38,000  Level Kansas City Center
Mon 12:19:09 AM 37.2961 -100.1592 308° West 427 491 38,000  Level Kansas City Center
Mon 12:20:10 AM 37.3650 -100.2736 307° West 428 493 38,000  Level Kansas City Center
Mon 12:21:10 AM 37.4333 -100.3889 307° West 429 494 38,000  Level Kansas City Center
Mon 12:22:11 AM 37.5017 -100.5039 307° West 429 494 38,000  Level Kansas City Center
Mon 12:23:11 AM 37.5806 -100.6372 307° West 427 491 38,000  Level Kansas City Center
Mon 12:24:12 AM 37.6522 -100.7592 307° West 430 495 38,000  Level Kansas City Center
Mon 12:25:12 AM 37.7222 -100.8789 306° West 426 490 38,000  Level Kansas City Center
Mon 12:26:12 AM 37.7906 -101.0008 305° West 435 501 38,000  Level Kansas City Center
Mon 12:27:13 AM 37.8572 -101.1167 306° West 431 496 38,000  Level Kansas City Center
Mon 12:28:13 AM 37.9356 -101.2519 306° West 428 493 38,000  Level Kansas City Center
Mon 12:29:14 AM 38.0028 -101.3683 306° West 428 493 38,000  Level Kansas City Center
Mon 12:30:14 AM 38.0706 -101.4872 306° West 432 497 38,000  Level Kansas City Center
Mon 12:30:29 AM 38.0814 -101.5061 306° West 428 493 38,000  Level Denver Center
Mon 12:31:30 AM 38.1583 -101.6400 306° West 423 487 38,000  Level Denver Center
Mon 12:32:31 AM 38.2378 -101.7750 307° West 425 489 38,000  Level Denver Center
Mon 12:33:32 AM 38.3056 -101.8925 306° West 429 494 38,000  Level Denver Center
Mon 12:34:33 AM 38.3728 -102.0111 306° West 432 497 38,000  Level Denver Center
Mon 12:35:34 AM 38.4503 -102.1497 306° West 431 496 38,000  Level Denver Center
Mon 12:36:35 AM 38.5175 -102.2675 306° West 429 494 38,000  Level Denver Center
Mon 12:37:36 AM 38.5719 -102.3661 305° West 428 493 38,000  Level Denver Center
Mon 12:38:37 AM 38.6603 -102.5239 306° West 428 493 38,000  Level Denver Center
Mon 12:39:38 AM 38.7258 -102.6411 306° West 424 488 38,000  Level Denver Center
Mon 12:40:39 AM 38.7986 -102.7717 306° West 424 488 38,000  Level Denver Center
Mon 12:41:39 AM 38.8656 -102.8961 305° West 422 486 38,000  Level Denver Center
Mon 12:42:40 AM 38.9331 -103.0183 305° West 415 478 38,000  Level Denver Center
Mon 12:43:41 AM 39.0003 -103.1394 306° West 414 476 38,000  Level Denver Center
Mon 12:44:42 AM 39.0658 -103.2600 305° West 411 473 38,000  Level Denver Center
Mon 12:45:55 AM 39.1314 -103.3831 305° West 412 474 38,000  Level Denver Center
Mon 12:46:56 AM 39.2100 -103.5267 305° West 418 481 38,000  Level Denver Center
Mon 12:47:57 AM 39.2756 -103.6514 304° West 417 480 38,000  Level Denver Center
Mon 12:48:57 AM 39.3422 -103.7775 304° West 420 483 38,000  Level Denver Center
Mon 12:49:58 AM 39.4086 -103.9036 304° West 422 486 38,000  Level Denver Center
Mon 12:50:59 AM 39.4753 -104.0303 304° West 419 482 38,000  Level Denver Center
Mon 12:52:00 AM 39.5408 -104.1564 304° West 416 479 38,000  Level Denver Center
Mon 12:53:00 AM 39.6067 -104.2808 305° West 419 482 38,000  Level Denver Center
Mon 12:54:01 AM 39.6681 -104.3986 304° West 395 455 38,000  Level Denver Center
Mon 12:55:02 AM 39.7392 -104.5369 304° West 397 457 38,000  Level Denver Center
Mon 12:56:02 AM 39.8008 -104.6511 305° West 389 448 38,000  Level Denver Center
Mon 12:57:03 AM 39.8611 -104.7678 304° West 388 447 38,000  Level Denver Center
Mon 12:58:04 AM 39.9225 -104.8869 304° West 396 456 38,000  Level Denver Center
Mon 12:59:04 AM 39.9825 -105.0044 304° West 387 445 38,000  Level Denver Center
Mon 01:00:05 AM 40.0433 -105.1222 304° West 385 443 38,000  Level Denver Center
Mon 01:01:05 AM 40.1031 -105.2378 304° West 383 441 38,000  Level Denver Center
Mon 01:02:06 AM 40.1619 -105.3561 303° West 384 442 38,000  Level Denver Center
Mon 01:03:07 AM 40.2231 -105.4719 305° West 383 441 38,000  Level Denver Center
Mon 01:04:07 AM 40.2858 -105.5861 306° West 385 443 38,000  Level Denver Center
Mon 01:05:08 AM 40.3522 -105.7086 305° West 404 465 38,000  Level Denver Center
Mon 01:06:08 AM 40.4194 -105.8356 305° West 418 481 38,000  Level Denver Center
Mon 01:07:09 AM 40.4842 -105.9569 305° West 407 468 38,000  Level Denver Center
Mon 01:08:09 AM 40.5486 -106.0797 305° West 405 466 38,000  Level Denver Center
Mon 01:09:10 AM 40.6111 -106.1947 306° West 406 467 38,000  Level Denver Center
Mon 01:10:10 AM 40.6706 -106.3103 304° West 400 460 38,000  Level Denver Center
Mon 01:11:11 AM 40.7417 -106.4447 305° West 401 461 38,000  Level Denver Center
Mon 01:12:12 AM 40.7986 -106.5533 305° West 398 458 38,000  Level Denver Center
Mon 01:13:12 AM 40.8692 -106.6883 305° West 399 459 38,000  Level Denver Center
Mon 01:14:13 AM 40.9289 -106.8061 304° West 403 464 38,000  Level Denver Center
Mon 01:15:13 AM 40.9908 -106.9250 305° West 407 468 38,000  Level Denver Center
Mon 01:16:14 AM 41.0606 -107.0617 304° West 403 464 38,000  Level Denver Center
Mon 01:17:14 AM 41.1203 -107.1803 304° West 405 466 38,000  Level Denver Center
Mon 01:18:15 AM 41.1817 -107.3014 304° West 411 473 38,000  Level Denver Center
Mon 01:19:15 AM 41.2536 -107.4389 305° West 407 468 38,000  Level Denver Center
Mon 01:20:40 AM 41.3253 -107.5781 304° West 410 472 38,000  Level Denver Center
Mon 01:21:40 AM 41.4050 -107.7389 303° West 409 471 38,000  Level Denver Center
Mon 01:22:41 AM 41.4656 -107.8586 304° West 408 470 38,000  Level Denver Center
Mon 01:23:41 AM 41.5256 -107.9772 304° West 405 466 38,000  Level Denver Center
Mon 01:24:41 AM 41.5744 -108.0761 303° West 402 463 38,000  Level Denver Center
Mon 01:25:36 AM 41.6422 -108.2156 303° West 401 461 38,000  Level Salt Lake Center
Mon 01:27:37 AM 41.7706 -108.4767 303° West 409 471 38,000  Level Salt Lake Center
Mon 01:28:38 AM 41.8389 -108.6194 303° West 412 474 38,000  Level Salt Lake Center
Mon 01:29:39 AM 41.8986 -108.7431 303° West 413 475 38,000  Level Salt Lake Center
Mon 01:30:40 AM 41.9583 -108.8675 303° West 416 479 38,000  Level Salt Lake Center
Mon 01:31:40 AM 42.0281 -109.0108 303° West 414 476 38,000  Level Salt Lake Center
Mon 01:32:41 AM 42.0878 -109.1356 303° West 416 479 38,000  Level Salt Lake Center
Mon 01:33:42 AM 42.1483 -109.2611 303° West 417 480 38,000  Level Salt Lake Center
Mon 01:34:43 AM 42.2169 -109.4081 302° West 417 480 38,000  Level Salt Lake Center
Mon 01:35:44 AM 42.2756 -109.5322 303° West 414 476 38,000  Level Salt Lake Center
Mon 01:36:44 AM 42.3442 -109.6769 303° West 413 475 38,000  Level Salt Lake Center
Mon 01:37:45 AM 42.4028 -109.8022 302° West 414 476 38,000  Level Salt Lake Center
Mon 01:38:46 AM 42.4600 -109.9269 302° West 410 472 38,000  Level Salt Lake Center
Mon 01:39:46 AM 42.5275 -110.0728 302° West 410 472 38,000  Level Salt Lake Center
Mon 01:40:47 AM 42.5864 -110.1989 302° West 412 474 38,000  Level Salt Lake Center
Mon 01:41:48 AM 42.6456 -110.3256 302° West 413 475 38,000  Level Salt Lake Center
Mon 01:42:49 AM 42.7142 -110.4739 302° West 415 478 38,000  Level Salt Lake Center
Mon 01:43:49 AM 42.7733 -110.6028 302° West 413 475 38,000 99 Level Salt Lake Center
Mon 01:44:50 AM 42.8325 -110.7300 302° West 414 476 38,200 443 Climbing Salt Lake Center
Mon 01:45:51 AM 42.8931 -110.8622 302° West 427 491 38,900 893 Climbing Salt Lake Center
Mon 01:46:51 AM 42.9625 -111.0156 302° West 424 488 40,000 545 Climbing Salt Lake Center
Mon 01:47:52 AM 43.0183 -111.1436 301° West 413 475 40,000  Level Salt Lake Center
Mon 01:48:53 AM 43.0756 -111.2678 302° West 405 466 40,000  Level Salt Lake Center
Mon 01:49:53 AM 43.1406 -111.4169 301° West 409 471 40,000  Level Salt Lake Center
Mon 01:50:54 AM 43.1975 -111.5464 301° West 413 475 40,000  Level Salt Lake Center
Mon 01:51:55 AM 43.2550 -111.6758 301° West 415 478 40,000  Level Salt Lake Center
Mon 01:52:55 AM 43.3208 -111.8294 301° West 418 481 40,000  Level Salt Lake Center
Mon 01:53:56 AM 43.3781 -111.9589 301° West 416 479 40,000  Level Salt Lake Center
Mon 01:54:57 AM 43.4356 -112.0894 301° West 416 479 40,000  Level Salt Lake Center
Mon 01:55:57 AM 43.5011 -112.2428 301° West 417 480 40,000  Level Salt Lake Center
Mon 01:56:58 AM 43.5569 -112.3725 301° West 412 474 40,000  Level Salt Lake Center
Mon 01:57:58 AM 43.6125 -112.5039 300° West 412 474 40,000  Level Salt Lake Center
Mon 01:58:59 AM 43.6775 -112.6542 301° West 409 471 40,000  Level Salt Lake Center
Mon 01:59:59 AM 43.7322 -112.7828 301° West 408 470 40,000  Level Salt Lake Center
Mon 02:01:00 AM 43.7856 -112.9117 300° West 405 466 40,000  Level Salt Lake Center
Mon 02:02:01 AM 43.8372 -113.0328 301° West 392 451 40,000  Level Salt Lake Center
Mon 02:03:01 AM 43.8961 -113.1736 300° West 380 437 40,000  Level Salt Lake Center
Mon 02:04:02 AM 43.9489 -113.2986 300° West 387 445 40,000  Level Salt Lake Center
Mon 02:05:02 AM 44.0006 -113.4253 300° West 392 451 40,000  Level Salt Lake Center
Mon 02:06:03 AM 44.0611 -113.5683 301° West 388 447 40,000  Level Salt Lake Center
Mon 02:07:03 AM 44.1117 -113.6897 300° West 382 440 40,000  Level Salt Lake Center
Mon 02:08:04 AM 44.1636 -113.8169 300° West 388 447 40,000  Level Salt Lake Center
Mon 02:10:05 AM 44.2733 -114.0850 300° West 385 443 40,000  Level Salt Lake Center
Mon 02:11:05 AM 44.3217 -114.2067 299° West 378 435 40,000  Level Salt Lake Center
Mon 02:12:06 AM 44.3778 -114.3489 299° West 375 432 40,000  Level Salt Lake Center
Mon 02:13:06 AM 44.4283 -114.4692 301° West 375 432 40,000  Level Salt Lake Center
Mon 02:14:07 AM 44.4758 -114.5906 299° West 374 430 40,000  Level Salt Lake Center
Mon 02:15:07 AM 44.5244 -114.7114 299° West 373 429 40,000  Level Salt Lake Center
Mon 02:16:08 AM 44.5789 -114.8531 298° West 371 427 40,000  Level Salt Lake Center
Mon 02:17:08 AM 44.6261 -114.9725 299° West 368 423 40,000  Level Salt Lake Center
Mon 02:18:10 AM 44.6731 -115.0947 298° West 372 428 40,000  Level Salt Lake Center
Mon 02:19:09 AM 44.7272 -115.2353 299° West 369 425 40,000  Level Salt Lake Center
Mon 02:20:10 AM 44.7747 -115.3550 299° West 367 422 40,000  Level Salt Lake Center
Mon 02:21:10 AM 44.8208 -115.4747 299° West 366 421 40,000  Level Salt Lake Center
Mon 02:22:11 AM 44.8750 -115.6167 298° West 369 425 40,000  Level Salt Lake Center
Mon 02:23:11 AM 44.9211 -115.7378 298° West 367 422 40,000  Level Salt Lake Center
Mon 02:25:12 AM 45.0194 -116.0003 298° West 368 423 40,000  Level Salt Lake Center
Mon 02:26:12 AM 45.0656 -116.1219 298° West 369 425 40,000  Level Salt Lake Center
Mon 02:27:13 AM 45.1119 -116.2436 298° West 370 426 40,000  Level Salt Lake Center
Mon 02:28:13 AM 45.1636 -116.3839 298° West 364 419 40,000  Level Salt Lake Center
Mon 02:29:14 AM 45.2081 -116.5031 298° West 358 412 40,000  Level Salt Lake Center
Mon 02:30:14 AM 45.2525 -116.6214 298° West 356 410 40,000  Level Salt Lake Center
Mon 02:30:36 AM 45.2750 -116.6800 299° West 354 407 40,000  Level Seattle Center
Mon 02:31:36 AM 45.3181 -116.7986 297° West 353 406 40,000  Level Seattle Center
Mon 02:32:36 AM 45.3614 -116.9164 298° West 351 404 40,000  Level Seattle Center
Mon 02:33:36 AM 45.4056 -117.0353 298° West 355 409 40,000  Level Seattle Center
Mon 02:34:37 AM 45.4547 -117.1750 297° West 353 406 40,000  Level Seattle Center
Mon 02:35:37 AM 45.4986 -117.2922 298° West 351 404 40,000  Level Seattle Center
Mon 02:36:37 AM 45.5392 -117.4050 297° West 355 409 40,000  Level Seattle Center
Mon 02:37:38 AM 45.5842 -117.5292 297° West 355 409 40,000  Level Seattle Center
Mon 02:38:38 AM 45.6267 -117.6539 296° West 353 406 40,000  Level Seattle Center
Mon 02:39:38 AM 45.6714 -117.7806 297° West 357 411 40,000  Level Seattle Center
Mon 02:41:19 AM 45.7531 -118.0092 297° West 358 412 40,000  Level Salt Lake Center
Mon 02:41:38 AM 45.7619 -118.0331 298° West 357 411 40,000 -825 Level Seattle Center
Mon 02:42:39 AM 45.8058 -118.1614 296° West 358 412 38,900 -1,438 Descending Seattle Center
Mon 02:43:39 AM 45.8497 -118.2900 296° West 360 414 37,100 -1,900 Descending Seattle Center
Mon 02:44:39 AM 45.8922 -118.4122 297° West 346 398 35,100 -2,850 Descending Seattle Center
Mon 02:45:39 AM 45.9433 -118.5592 297° West 349 402 31,400 -3,074 Descending Seattle Center
Mon 02:46:40 AM 45.9883 -118.6922 296° West 366 421 28,900 -2,281 Descending Seattle Center
Mon 02:47:40 AM 46.0328 -118.8211 296° West 363 418 26,800 -2,200 Descending Seattle Center
Mon 02:48:40 AM 46.0756 -118.9453 296° West 353 406 24,500 -1,400 Descending Seattle Center
Mon 02:49:40 AM 46.1178 -119.0731 296° West 353 406 24,000 -250 Descending Seattle Center
Mon 02:50:40 AM 46.1656 -119.2125 296° West 381 438 24,000  Level Seattle Center
Mon 02:51:41 AM 46.2117 -119.3489 296° West 383 441 24,000  Level Seattle Center
Mon 02:52:41 AM 46.2567 -119.4833 296° West 376 433 24,000  Level Seattle Center
Mon 02:53:41 AM 46.3006 -119.6164 296° West 371 427 24,000  Level Seattle Center
Mon 02:55:41 AM 46.3897 -119.8878 296° West 375 432 24,000  Level Seattle Center
Mon 02:56:42 AM 46.4331 -120.0214 295° West 371 427 24,000  Level Seattle Center
Mon 02:57:42 AM 46.4769 -120.1558 295° West 371 427 24,000  Level Seattle Center
Mon 02:58:42 AM 46.5211 -120.2906 296° West 372 428 24,000  Level Seattle Center
Mon 02:59:42 AM 46.5639 -120.4258 295° West 370 426 24,000  Level Seattle Center
Mon 03:00:42 AM 46.6208 -120.5489 304° West 370 426 24,000  Level Seattle Center
Mon 03:01:43 AM 46.6797 -120.6736 305° West 374 430 24,000  Level Seattle Center
Mon 03:02:43 AM 46.7383 -120.7972 305° West 374 430 24,000  Level Seattle Center
Mon 03:03:43 AM 46.7950 -120.9225 303° West 372 428 24,000  Level Seattle Center
Mon 03:04:43 AM 46.8522 -121.0433 305° West 366 421 24,000  Level Seattle Center
Mon 03:05:43 AM 46.9097 -121.1622 305° West 360 414 24,000  Level Seattle Center
Mon 03:06:26 AM 46.9536 -121.2558 305° West 359 413 24,000 -197 Level Seattle Center
Mon 03:06:44 AM 46.9653 -121.2808 304° West 355 409 23,800 -1,778 Descending Seattle Center
Mon 03:07:20 AM 47.0047 -121.3639 305° West 353 406 22,400 -2,400 Descending Seattle Center
Mon 03:07:44 AM 47.0186 -121.3989 300° West 348 400 21,400 -2,754 Descending Seattle Center
Mon 03:08:21 AM 47.0572 -121.4778 306° West 341 392 19,600 -2,200 Descending Seattle Center
Mon 03:08:44 AM 47.0753 -121.5200 302° West 347 399 19,200 -800 Descending Seattle Center
Mon 03:09:21 AM 47.1153 -121.6053 305° West 351 404 18,800 -800 Descending Seattle Center
Mon 03:09:44 AM 47.1289 -121.6378 302° West 350 403 18,400 -1,745 Descending Seattle Center
Mon 03:10:16 AM 47.1603 -121.7008 306° West 340 391 17,200 -2,100 Descending Seattle Center
Mon 03:10:44 AM 47.1781 -121.7456 300° West 318 366 16,300 -2,111 Descending Seattle Center
Mon 03:11:10 AM 47.2033 -121.7975 306° West 301 346 15,300 -1,724 Descending Seattle Center
Mon 03:12:11 AM 47.2558 -121.8794 313° West 280 322 13,800 -1,579 Descending Seattle Center
Mon 03:12:45 AM 47.2892 -121.9094 329° Northwest 293 337 12,800 -1,377 Descending Seattle Center
Mon 03:13:12 AM 47.3228 -121.9403 328° Northwest 280 322 12,400 -1,100 Descending Seattle Center
Mon 03:13:45 AM 47.3511 -121.9692 325° Northwest 271 312 11,700 -1,600 Descending Seattle Center
Mon 03:14:12 AM 47.3919 -121.9933 338° Northwest 262 302 10,800 -1,500 Descending Seattle Center
Mon 03:14:45 AM 47.4178 -122.0086 338° Northwest 261 300 10,200 -1,082 Descending Seattle Center
Mon 03:15:13 AM 47.4569 -122.0294 340° North 240 276 9,700 -800 Descending Seattle Center
Mon 03:15:45 AM 47.4792 -122.0419 339° North 241 277 9,400 -1,200 Descending Seattle Center
Mon 03:16:13 AM 47.5144 -122.0631 338° Northwest 219 252 8,500 -1,770 Descending Seattle Center
Mon 03:16:46 AM 47.5447 -122.0806 339° North 221 254 7,600 -1,574 Descending Seattle Center
Mon 03:17:14 AM 47.5714 -122.0939 341° North 215 247 6,900 -1,500 Descending Seattle Center
Mon 03:17:46 AM 47.6017 -122.1122 338° Northwest 219 252 6,100 -1,180 Descending Seattle Center
Mon 03:18:15 AM 47.6289 -122.1275 339° North 221 254 5,700 -1,000 Descending Seattle Center
Mon 03:18:46 AM 47.6572 -122.1492 333° Northwest 222 255 5,100 -1,000 Descending Seattle Center
Mon 03:19:15 AM 47.6606 -122.1822 279° West 181 208 4,700 -900 Descending Seattle Center
Mon 03:19:46 AM 47.6628 -122.2175 275° West 167 192 4,200 -590 Descending Seattle Center
Mon 03:20:16 AM 47.6650 -122.2522 275° West 151 174 4,100 -500 Descending Seattle Center
Mon 03:20:46 AM 47.6575 -122.2797 248° West 166 191 3,700 -787 Descending Seattle Center
Mon 03:21:17 AM 47.6392 -122.2994 216° Southwest 161 185 3,300 -689 Descending Seattle Center
Mon 03:21:47 AM 47.6192 -122.3078 196° South 161 185 3,000 -200 Descending Seattle Center
Mon 03:22:17 AM 47.5967 -122.3067 178° South 157 181 3,100 -300 Climbing Seattle Center
Mon 03:22:47 AM 47.5758 -122.3072 181° South 157 181 2,700 -689 Descending Seattle Center
Mon 03:23:18 AM 47.5525 -122.3081 181° South 155 178 2,400 -800 Descending Seattle Center
Mon 03:23:47 AM 47.5358 -122.3078 179° South 146 168 1,900 -700 Descending Seattle Center
Mon 03:24:18 AM 47.5189 -122.3069 178° South 127 146 1,700 -387 Descending Seattle Center

Login

Don't have an account? Register now (free) for customized features, flight alerts, and more!